This is the latest recevied weather packets stored in our database for station/object DL9LA-13. If no packets are shown the sender has not sent any weather packets the latest 10 day(s).
| Time | Temp. | Humidity | Pressure | Rain* | Wind** | Luminosity | Snow |
|---|---|---|---|---|---|---|---|
| 1778136686 | 15° C | 66% | 968 hPa | - | - | - | - |
| 1778136083 | 16.11° C | 65% | 968 hPa | - | - | - | - |
| 1778135479 | 15° C | 66% | 968 hPa | - | - | - | - |
| 1778130046 | 26.67° C | 34% | 967 hPa | - | - | - | - |
| 1778128840 | 12.22° C | 86% | 967 hPa | - | - | - | - |
| 1778128236 | 11.67° C | 88% | 967 hPa | - | - | - | - |
| 1778127633 | 11.11° C | 90% | 967 hPa | - | - | - | - |
| 1778126425 | 11.11° C | 90% | 967 hPa | - | - | - | - |
| 1778125822 | 11.11° C | 90% | 967 hPa | - | - | - | - |
| 1778125218 | 11.11° C | 91% | 967 hPa | - | - | - | - |
| 1778124614 | 10.56° C | 94% | 967 hPa | - | - | - | - |
| 1778124010 | 10.56° C | 98% | 967 hPa | - | - | - | - |
| 1778123406 | 10° C | 100% | 967 hPa | - | - | - | - |
| 1778122803 | 10° C | 100% | 967 hPa | - | - | - | - |
| 1778122199 | 10° C | 96% | 966 hPa | - | - | - | - |
| 1778121595 | 11.11° C | 95% | 966 hPa | - | - | - | - |
| 1778120992 | 11.11° C | 94% | 966 hPa | - | - | - | - |
| 1778118577 | 11.11° C | 94% | 966 hPa | - | - | - | - |
| 1778117974 | 11.11° C | 93% | 966 hPa | - | - | - | - |
| 1778116766 | 11.67° C | 95% | 966 hPa | - | - | - | - |
| 1778116163 | 11.67° C | 94% | 966 hPa | - | - | - | - |
| 1778115559 | 11.67° C | 94% | 966 hPa | - | - | - | - |
| 1778114955 | 11.67° C | 94% | 966 hPa | - | - | - | - |
| 1778111937 | 12.22° C | 97% | 966 hPa | - | - | - | - |
| 1778111334 | 12.22° C | 97% | 966 hPa | - | - | - | - |
* Rain since midnight (hover to see other rain measurements)
** Current wind speed in m/s (hover to see current wind gust speed)